createdAt,value
2019-03-06T00:01:27.289Z,29.53
2019-03-06T00:03:55.593Z,30.20
2019-03-06T00:06:23.925Z,28.60
2019-03-06T00:08:52.156Z,24.80
2019-03-06T00:11:20.448Z,25.60
2019-03-06T00:13:48.784Z,23.17
2019-03-06T00:16:17.093Z,23.93
2019-03-06T00:18:45.352Z,23.27
2019-03-06T00:21:13.583Z,20.07
2019-03-06T00:23:42.423Z,22.67
2019-03-06T00:26:10.720Z,20.50
2019-03-06T00:28:39.067Z,22.00
2019-03-06T00:31:07.369Z,22.30
2019-03-06T00:33:35.645Z,20.63
2019-03-06T00:36:05.899Z,25.87
2019-03-06T00:38:34.120Z,22.70
2019-03-06T00:41:06.821Z,24.40
2019-03-06T00:43:35.123Z,24.13
2019-03-06T00:46:03.444Z,23.93
2019-03-06T00:48:31.872Z,23.87
2019-03-06T00:51:00.148Z,24.83
2019-03-06T00:53:28.373Z,23.63
2019-03-06T00:55:56.633Z,22.37
2019-03-06T00:58:25.127Z,23.47
2019-03-06T01:00:53.866Z,23.67
2019-03-06T01:03:22.196Z,23.30
2019-03-06T01:05:50.798Z,23.23
2019-03-06T01:08:19.049Z,24.30
2019-03-06T01:10:50.721Z,23.20
2019-03-06T01:13:20.861Z,23.80
2019-03-06T01:15:54.955Z,24.53
2019-03-06T01:18:23.200Z,21.50
2019-03-06T01:20:51.504Z,21.13
2019-03-06T01:23:19.733Z,22.30
2019-03-06T01:25:47.993Z,23.33
2019-03-06T01:28:16.293Z,18.73
2019-03-06T01:30:44.546Z,20.10
2019-03-06T01:33:30.388Z,22.87
2019-03-06T01:36:06.168Z,22.43
2019-03-06T01:38:52.400Z,22.50
2019-03-06T01:41:28.092Z,22.20
2019-03-06T01:44:03.450Z,21.53
2019-03-06T01:46:31.780Z,22.03
2019-03-06T01:49:00.046Z,21.00
2019-03-06T01:51:28.369Z,18.90
2019-03-06T01:53:56.605Z,19.10
2019-03-06T01:56:24.936Z,21.77
2019-03-06T01:58:53.233Z,20.90
2019-03-06T02:01:21.529Z,19.90
2019-03-06T02:03:49.783Z,20.30
2019-03-06T02:06:18.386Z,18.07
2019-03-06T02:08:46.916Z,20.37
2019-03-06T02:11:15.689Z,18.93
2019-03-06T02:13:43.944Z,21.13
2019-03-06T02:16:12.312Z,18.30
2019-03-06T02:18:40.844Z,19.73
2019-03-06T02:21:09.172Z,19.70
2019-03-06T02:23:37.468Z,16.00
2019-03-06T02:26:05.804Z,18.47
2019-03-06T02:28:34.036Z,19.03
2019-03-06T02:31:02.427Z,20.13
2019-03-06T02:33:30.691Z,21.47
2019-03-06T02:35:58.918Z,19.63
2019-03-06T02:38:27.171Z,16.73
2019-03-06T02:40:55.402Z,19.10
2019-03-06T02:43:23.661Z,16.63
2019-03-06T02:45:52.465Z,17.37
2019-03-06T02:48:20.713Z,19.17
2019-03-06T02:50:49.015Z,16.90
2019-03-06T02:53:17.305Z,15.70
2019-03-06T02:55:45.649Z,16.40
2019-03-06T02:58:15.528Z,17.80
2019-03-06T03:00:45.504Z,19.23
2019-03-06T03:03:31.948Z,17.67
2019-03-06T03:06:04.650Z,14.73
2019-03-06T03:08:32.878Z,14.37
2019-03-06T03:11:01.212Z,15.63
2019-03-06T03:13:29.453Z,14.00
2019-03-06T03:15:57.781Z,17.07
2019-03-06T03:18:26.014Z,14.73
2019-03-06T03:20:54.641Z,16.17
2019-03-06T03:23:22.870Z,20.77
2019-03-06T03:25:51.138Z,19.07
2019-03-06T03:28:19.914Z,16.60
2019-03-06T03:30:48.306Z,14.40
2019-03-06T03:33:16.599Z,18.77
2019-03-06T03:35:44.897Z,17.17
2019-03-06T03:38:13.215Z,15.13
2019-03-06T03:40:41.424Z,14.87
2019-03-06T03:43:09.694Z,13.97
2019-03-06T03:45:37.918Z,14.83
2019-03-06T03:48:06.951Z,16.47
2019-03-06T03:50:35.160Z,19.97
2019-03-06T03:53:03.492Z,19.27
2019-03-06T03:55:31.793Z,18.13
2019-03-06T03:58:00.040Z,19.97
2019-03-06T04:00:28.342Z,16.27
2019-03-06T04:02:56.590Z,15.40
2019-03-06T04:05:24.897Z,16.70
2019-03-06T04:07:53.159Z,18.53
2019-03-06T04:10:21.377Z,16.67
2019-03-06T04:12:49.686Z,16.40
2019-03-06T04:15:18.276Z,14.60
2019-03-06T04:17:46.581Z,18.90
2019-03-06T04:20:15.609Z,18.47
2019-03-06T04:22:43.906Z,15.27
2019-03-06T04:25:12.336Z,21.07
2019-03-06T04:27:40.562Z,21.13
2019-03-06T04:30:10.423Z,17.63
2019-03-06T04:32:38.685Z,15.80
2019-03-06T04:35:06.980Z,17.93
2019-03-06T04:37:35.305Z,16.80
2019-03-06T04:40:05.096Z,17.37
2019-03-06T04:42:33.550Z,23.97
2019-03-06T04:45:01.784Z,20.70
2019-03-06T04:47:30.005Z,25.13
2019-03-06T04:49:58.272Z,19.70
2019-03-06T04:52:26.573Z,19.00
2019-03-06T04:54:54.830Z,18.17
2019-03-06T04:57:23.049Z,16.93
2019-03-06T04:59:51.307Z,20.40
2019-03-06T05:02:22.312Z,20.20
2019-03-06T05:04:50.572Z,17.20
2019-03-06T05:07:18.882Z,18.13
2019-03-06T05:09:47.144Z,18.33
2019-03-06T05:12:15.454Z,18.27
2019-03-06T05:14:43.676Z,24.37
2019-03-06T05:17:19.760Z,24.90
2019-03-06T05:19:48.380Z,18.60
2019-03-06T05:22:16.641Z,22.93
2019-03-06T05:24:44.960Z,20.40
2019-03-06T05:27:13.273Z,24.83
2019-03-06T05:29:41.581Z,22.43
2019-03-06T05:32:26.592Z,16.77
2019-03-06T05:34:55.490Z,17.17
2019-03-06T05:37:37.354Z,17.27
2019-03-06T05:40:05.649Z,16.93
2019-03-06T05:42:33.878Z,17.47
2019-03-06T05:45:03.995Z,18.93
2019-03-06T05:47:32.257Z,17.90
2019-03-06T05:50:00.514Z,16.23
2019-03-06T05:52:29.232Z,14.97
2019-03-06T05:54:57.492Z,15.07
2019-03-06T05:57:25.715Z,13.93
2019-03-06T05:59:53.972Z,15.00
2019-03-06T06:02:22.276Z,17.33
2019-03-06T06:04:50.529Z,18.30
2019-03-06T06:07:18.836Z,18.80
2019-03-06T06:09:47.088Z,24.17
2019-03-06T06:12:15.324Z,24.63
2019-03-06T06:14:43.547Z,22.60
2019-03-06T06:17:11.807Z,24.03
2019-03-06T06:19:40.029Z,18.23
2019-03-06T06:22:19.051Z,17.80
2019-03-06T06:24:47.288Z,23.03
2019-03-06T06:27:15.541Z,22.63
2019-03-06T06:29:44.244Z,19.37
2019-03-06T06:32:12.513Z,20.67
2019-03-06T06:34:40.765Z,27.40
2019-03-06T06:37:09.033Z,26.80
2019-03-06T06:39:37.259Z,27.70
2019-03-06T06:42:05.496Z,29.27
2019-03-06T06:44:33.756Z,33.53
2019-03-06T06:47:02.061Z,35.53
2019-03-06T06:49:30.328Z,34.50
2019-03-06T06:52:15.064Z,42.23
2019-03-06T06:54:44.853Z,43.90
2019-03-06T06:57:17.556Z,38.13
2019-03-06T06:59:47.340Z,28.93
2019-03-06T07:02:21.580Z,25.73
2019-03-06T07:05:10.733Z,18.20
2019-03-06T07:07:55.744Z,19.87
2019-03-06T07:10:37.283Z,15.70
2019-03-06T07:13:23.784Z,14.13
2019-03-06T07:16:10.338Z,14.10
2019-03-06T07:18:40.281Z,11.50
2019-03-06T07:21:10.212Z,11.60
2019-03-06T07:23:41.391Z,9.40
2019-03-06T07:26:19.895Z,9.87
2019-03-06T07:29:06.510Z,9.17
2019-03-06T07:31:52.424Z,9.50
2019-03-06T07:34:22.974Z,8.73
2019-03-06T07:36:52.978Z,7.87
2019-03-06T07:39:23.072Z,8.43
2019-03-06T07:42:09.561Z,8.30
2019-03-06T07:44:39.519Z,7.20
2019-03-06T07:47:25.654Z,6.77
2019-03-06T07:50:01.489Z,5.57
2019-03-06T07:52:31.340Z,5.70
2019-03-06T07:55:06.740Z,5.87
2019-03-06T07:57:40.967Z,5.83
2019-03-06T08:00:13.689Z,5.93
2019-03-06T08:02:55.521Z,5.87
2019-03-06T08:05:23.859Z,5.40
2019-03-06T08:07:52.150Z,5.40
2019-03-06T08:10:22.092Z,5.53
2019-03-06T08:13:10.210Z,5.73
2019-03-06T08:15:48.922Z,6.10
2019-03-06T08:18:27.709Z,6.37
2019-03-06T08:21:09.468Z,5.50
2019-03-06T08:23:48.380Z,5.23
2019-03-06T08:26:16.675Z,6.00
2019-03-06T08:28:44.928Z,5.63
2019-03-06T08:31:14.880Z,5.97
2019-03-06T08:33:43.115Z,5.87
2019-03-06T08:36:11.335Z,6.07
2019-03-06T08:38:39.659Z,5.60
2019-03-06T08:41:07.888Z,5.30
2019-03-06T08:43:36.303Z,6.33
2019-03-06T08:46:18.424Z,5.43
2019-03-06T08:49:00.317Z,5.10
2019-03-06T08:51:32.895Z,5.33
2019-03-06T08:54:14.769Z,5.40
2019-03-06T08:56:50.764Z,5.50
2019-03-06T08:59:37.314Z,5.20
2019-03-06T09:02:23.488Z,3.87
2019-03-06T09:04:53.447Z,3.63
2019-03-06T09:07:38.207Z,3.80
2019-03-06T09:10:09.169Z,3.60
2019-03-06T09:12:55.356Z,3.57
2019-03-06T09:15:34.588Z,3.33
2019-03-06T09:18:16.446Z,3.67
2019-03-06T09:20:55.644Z,3.30
2019-03-06T09:23:41.902Z,3.10
2019-03-06T09:26:12.157Z,3.20
2019-03-06T09:28:42.016Z,3.10
2019-03-06T09:31:20.947Z,3.23
2019-03-06T09:33:50.946Z,3.00
2019-03-06T09:36:36.232Z,3.10
2019-03-06T09:39:16.592Z,2.80
2019-03-06T09:41:46.553Z,3.00
2019-03-06T09:44:22.530Z,2.60
2019-03-06T09:46:52.473Z,2.80
2019-03-06T09:49:22.430Z,2.87
2019-03-06T09:51:54.880Z,2.23
2019-03-06T09:54:33.636Z,2.70
2019-03-06T09:57:12.556Z,2.50
2019-03-06T09:59:45.241Z,2.50
2019-03-06T10:02:15.177Z,2.47
2019-03-06T10:04:57.104Z,2.50
2019-03-06T10:07:27.008Z,2.10
2019-03-06T10:10:02.777Z,2.17
2019-03-06T10:12:35.824Z,2.53
2019-03-06T10:15:10.222Z,2.10
2019-03-06T10:17:51.862Z,2.30
2019-03-06T10:20:25.304Z,2.13
2019-03-06T10:22:54.907Z,2.10
2019-03-06T10:25:30.327Z,2.50
2019-03-06T10:27:54.285Z,2.27
2019-03-06T10:30:22.595Z,1.87
2019-03-06T10:32:51.272Z,2.23
2019-03-06T10:35:20.243Z,2.30
2019-03-06T10:37:48.857Z,2.83
2019-03-06T10:40:17.995Z,2.30
2019-03-06T10:42:46.216Z,2.20
2019-03-06T10:45:15.903Z,2.37
2019-03-06T10:47:44.963Z,2.60
2019-03-06T10:50:14.877Z,2.57
2019-03-06T10:52:43.249Z,2.30
2019-03-06T10:55:14.220Z,2.23
2019-03-06T10:57:42.514Z,2.00
2019-03-06T11:00:19.408Z,2.03
2019-03-06T11:02:48.664Z,2.00
2019-03-06T11:05:20.020Z,1.93
2019-03-06T11:07:48.877Z,1.87
2019-03-06T11:10:28.226Z,2.10
2019-03-06T11:12:56.730Z,2.40
2019-03-06T11:15:25.129Z,2.50
2019-03-06T11:17:54.062Z,2.00
2019-03-06T11:20:27.096Z,1.90
2019-03-06T11:22:56.605Z,2.17
2019-03-06T11:25:26.344Z,1.90
2019-03-06T11:27:55.680Z,2.10
2019-03-06T11:30:28.448Z,2.20
2019-03-06T11:32:56.731Z,1.80
2019-03-06T11:35:25.419Z,1.93
2019-03-06T11:37:54.182Z,1.90
2019-03-06T11:40:22.508Z,2.10
2019-03-06T11:42:50.800Z,1.93
2019-03-06T11:45:39.860Z,1.90
2019-03-06T11:48:08.444Z,2.10
2019-03-06T11:50:40.757Z,2.07
2019-03-06T11:53:06.824Z,2.60
2019-03-06T11:55:35.145Z,1.80
2019-03-06T11:58:07.825Z,2.27
2019-03-06T12:00:38.184Z,2.00
2019-03-06T12:03:07.088Z,2.33
2019-03-06T12:05:37.685Z,1.90
2019-03-06T12:08:08.072Z,1.97
2019-03-06T12:13:23.796Z,1.70
2019-03-06T12:15:52.119Z,1.97
2019-03-06T12:18:21.320Z,2.10
2019-03-06T12:20:49.618Z,2.20
2019-03-06T12:23:17.938Z,1.90
2019-03-06T12:25:46.273Z,1.87
2019-03-06T12:28:15.954Z,1.83
2019-03-06T12:30:44.356Z,2.27
2019-03-06T12:33:20.150Z,2.93
2019-03-06T12:35:48.748Z,2.30
2019-03-06T12:38:17.384Z,2.13
2019-03-06T12:40:45.672Z,2.23
2019-03-06T12:43:13.992Z,2.40
2019-03-06T12:45:43.747Z,2.67
2019-03-06T12:48:16.742Z,2.50
2019-03-06T12:50:54.062Z,2.27
2019-03-06T12:53:14.936Z,2.13
2019-03-06T12:55:43.224Z,2.70
2019-03-06T12:58:11.644Z,2.53
2019-03-06T13:00:40.164Z,2.50
2019-03-06T13:03:08.491Z,2.27
2019-03-06T13:05:36.895Z,2.30
2019-03-06T13:08:05.184Z,2.70
2019-03-06T13:10:33.550Z,2.60
2019-03-06T13:13:01.838Z,2.20
2019-03-06T13:15:30.490Z,2.60
2019-03-06T13:17:58.779Z,2.40
2019-03-06T13:20:27.150Z,2.33
2019-03-06T13:22:55.440Z,2.57
2019-03-06T13:25:24.286Z,2.40
2019-03-06T13:27:54.957Z,2.53
2019-03-06T13:30:30.654Z,2.40
2019-03-06T13:33:09.716Z,2.07
2019-03-06T13:35:40.446Z,2.20
2019-03-06T13:38:08.931Z,2.07
2019-03-06T13:40:37.244Z,2.00
2019-03-06T13:43:05.818Z,1.80
2019-03-06T13:45:34.329Z,1.87
2019-03-06T13:48:02.589Z,1.60
2019-03-06T13:50:30.980Z,1.90
2019-03-06T13:52:59.277Z,1.70
2019-03-06T13:55:27.519Z,1.80
2019-03-06T13:57:56.293Z,1.90
2019-03-06T14:00:24.910Z,1.57
2019-03-06T14:02:53.310Z,1.90
2019-03-06T14:05:21.645Z,1.83
2019-03-06T14:07:56.298Z,1.80
2019-03-06T14:10:21.158Z,1.90
2019-03-06T14:12:49.425Z,1.90
2019-03-06T14:15:17.711Z,2.30
2019-03-06T14:17:46.071Z,3.20
2019-03-06T14:20:15.900Z,2.83
2019-03-06T14:22:44.230Z,2.30
2019-03-06T14:25:12.629Z,2.53
2019-03-06T14:27:41.057Z,2.07
2019-03-06T14:30:13.611Z,2.20
2019-03-06T14:32:41.902Z,2.27
2019-03-06T14:35:10.220Z,2.13
2019-03-06T14:37:38.579Z,2.37
2019-03-06T14:40:10.094Z,2.23
2019-03-06T14:42:38.388Z,2.10
2019-03-06T14:45:08.192Z,2.37
2019-03-06T14:47:36.569Z,2.30
2019-03-06T14:50:05.703Z,2.13
2019-03-06T14:52:34.016Z,2.70
2019-03-06T14:55:04.327Z,2.87
2019-03-06T14:57:32.348Z,2.63
2019-03-06T15:00:00.681Z,2.60
2019-03-06T15:02:28.974Z,2.60
2019-03-06T15:04:57.221Z,2.37
2019-03-06T15:07:25.518Z,2.77
2019-03-06T15:09:54.016Z,2.43
2019-03-06T15:12:22.329Z,2.67
2019-03-06T15:14:51.410Z,2.63
2019-03-06T15:17:19.675Z,2.90
2019-03-06T15:19:47.888Z,3.17
2019-03-06T15:22:16.222Z,3.70
2019-03-06T15:24:44.449Z,3.27
2019-03-06T15:27:12.790Z,2.70
2019-03-06T15:29:41.195Z,4.20
2019-03-06T15:32:09.666Z,4.43
2019-03-06T15:34:38.296Z,3.50
2019-03-06T15:37:06.685Z,3.20
2019-03-06T15:39:42.552Z,2.63
2019-03-06T15:42:05.293Z,3.37
2019-03-06T15:44:35.988Z,4.93
2019-03-06T15:47:04.713Z,4.37
2019-03-06T15:49:33.005Z,3.33
2019-03-06T15:52:01.328Z,3.90
2019-03-06T15:54:29.619Z,3.97
2019-03-06T15:56:57.905Z,2.40
2019-03-06T15:59:26.298Z,3.10
2019-03-06T16:01:54.626Z,2.83
2019-03-06T16:04:22.952Z,2.70
2019-03-06T16:06:54.015Z,3.00
2019-03-06T16:09:21.216Z,3.57
2019-03-06T16:11:49.512Z,4.10
2019-03-06T16:14:17.853Z,3.63
2019-03-06T16:16:46.140Z,3.13
2019-03-06T16:19:14.398Z,2.73
2019-03-06T16:21:42.711Z,2.87
2019-03-06T16:24:11.001Z,3.37
2019-03-06T16:26:39.248Z,2.43
2019-03-06T16:29:07.480Z,3.27
2019-03-06T16:31:35.723Z,2.77
2019-03-06T16:34:04.084Z,2.80
2019-03-06T16:36:32.406Z,2.50
2019-03-06T16:39:00.801Z,3.13
2019-03-06T16:41:29.116Z,2.77
2019-03-06T16:43:57.440Z,2.80
2019-03-06T16:46:25.831Z,2.70
2019-03-06T16:48:54.156Z,3.40
2019-03-06T16:51:22.377Z,2.30
2019-03-06T16:53:50.693Z,2.50
2019-03-06T16:56:18.953Z,2.90
2019-03-06T16:58:47.308Z,3.20
2019-03-06T17:01:15.528Z,3.00
2019-03-06T17:03:43.859Z,3.27
2019-03-06T17:06:12.140Z,2.57
2019-03-06T17:08:40.399Z,2.83
2019-03-06T17:11:10.147Z,2.80
2019-03-06T17:13:38.508Z,3.50
2019-03-06T17:16:07.301Z,2.77
2019-03-06T17:18:35.628Z,3.00
2019-03-06T17:21:03.918Z,3.23
2019-03-06T17:23:35.093Z,4.73
2019-03-06T17:26:03.390Z,3.40
2019-03-06T17:28:32.020Z,3.80
2019-03-06T17:31:00.376Z,3.87
2019-03-06T17:33:28.755Z,2.90
2019-03-06T17:35:57.004Z,3.07
2019-03-06T17:38:25.333Z,2.80
2019-03-06T17:40:53.624Z,2.90
2019-03-06T17:43:21.996Z,2.80
2019-03-06T17:45:50.285Z,2.50
2019-03-06T17:48:18.673Z,2.80
2019-03-06T17:50:46.994Z,2.90
2019-03-06T17:53:15.302Z,2.87
2019-03-06T17:55:43.622Z,2.87
2019-03-06T17:58:11.916Z,2.90
2019-03-06T18:00:41.886Z,2.87
2019-03-06T18:03:11.817Z,2.50
2019-03-06T18:05:40.205Z,2.97
2019-03-06T18:08:08.474Z,2.70
2019-03-06T18:10:36.911Z,2.90
2019-03-06T18:13:05.196Z,2.63
2019-03-06T18:15:33.680Z,2.80
2019-03-06T18:18:02.340Z,2.97
2019-03-06T18:20:30.627Z,2.80
2019-03-06T18:22:59.551Z,3.27
2019-03-06T18:25:28.936Z,3.40
2019-03-06T18:27:58.294Z,2.90
2019-03-06T18:30:26.887Z,3.37
2019-03-06T18:32:56.352Z,2.90
2019-03-06T18:35:24.747Z,3.17
2019-03-06T18:37:53.061Z,2.97
2019-03-06T18:40:22.082Z,3.00
2019-03-06T18:42:50.380Z,2.70
2019-03-06T18:45:19.500Z,2.70
2019-03-06T18:47:47.789Z,2.97
2019-03-06T18:50:22.078Z,3.50
2019-03-06T18:52:50.664Z,3.23
2019-03-06T18:55:19.357Z,3.07
2019-03-06T18:57:47.688Z,3.07
2019-03-06T19:00:29.523Z,2.90
2019-03-06T19:02:57.862Z,3.33
2019-03-06T19:05:26.143Z,3.03
2019-03-06T19:07:54.436Z,2.97
2019-03-06T19:10:23.177Z,3.73
2019-03-06T19:12:51.663Z,3.40
2019-03-06T19:15:20.861Z,3.40
2019-03-06T19:17:49.319Z,4.30
2019-03-06T19:20:18.975Z,3.50
2019-03-06T19:22:47.517Z,4.13
2019-03-06T19:25:16.319Z,4.20
2019-03-06T19:27:44.857Z,4.00
2019-03-06T19:30:16.337Z,4.37
2019-03-06T19:32:44.652Z,4.43
2019-03-06T19:35:12.962Z,3.50
2019-03-06T19:37:41.286Z,5.83
2019-03-06T19:40:10.373Z,3.57
2019-03-06T19:42:38.629Z,3.77
2019-03-06T19:45:11.187Z,4.07
2019-03-06T19:47:39.463Z,4.67
2019-03-06T19:50:09.217Z,4.10
2019-03-06T19:52:37.791Z,4.07
2019-03-06T19:55:06.830Z,3.80
2019-03-06T19:57:48.379Z,4.30
2019-03-06T20:00:16.701Z,3.93
2019-03-06T20:02:45.528Z,4.20
2019-03-06T20:05:13.837Z,4.80
2019-03-06T20:07:42.153Z,9.03
2019-03-06T20:10:10.476Z,4.33
2019-03-06T20:12:38.900Z,12.80
2019-03-06T20:15:08.624Z,8.37
2019-03-06T20:17:37.642Z,4.50
2019-03-06T20:20:07.546Z,4.03
2019-03-06T20:22:35.884Z,4.47
2019-03-06T20:25:04.807Z,4.27
2019-03-06T20:27:33.306Z,4.50
2019-03-06T20:30:01.632Z,4.20
2019-03-06T20:32:29.920Z,4.30
2019-03-06T20:34:58.188Z,4.40
2019-03-06T20:37:26.470Z,4.73
2019-03-06T20:39:54.785Z,5.00
2019-03-06T20:42:23.086Z,4.70
2019-03-06T20:44:51.740Z,5.60
2019-03-06T20:47:19.960Z,4.83
2019-03-06T20:49:48.334Z,5.60
2019-03-06T20:52:16.535Z,4.50
2019-03-06T20:54:44.829Z,4.07
2019-03-06T20:57:13.107Z,4.57
2019-03-06T20:59:42.685Z,4.67
2019-03-06T21:02:11.342Z,5.17
2019-03-06T21:04:39.573Z,4.87
2019-03-06T21:07:07.845Z,5.53
2019-03-06T21:09:40.958Z,4.93
2019-03-06T21:12:10.113Z,5.43
2019-03-06T21:14:39.000Z,5.03
2019-03-06T21:17:12.806Z,4.53
2019-03-06T21:19:42.026Z,4.43
2019-03-06T21:22:11.433Z,5.07
2019-03-06T21:24:40.604Z,4.77
2019-03-06T21:27:08.923Z,4.50
2019-03-06T21:29:37.348Z,4.57
2019-03-06T21:32:06.093Z,4.13
2019-03-06T21:34:34.521Z,4.47
2019-03-06T21:37:04.150Z,4.70
2019-03-06T21:39:33.032Z,4.23
2019-03-06T21:42:01.689Z,4.50
2019-03-06T21:44:30.018Z,4.50
2019-03-06T21:46:58.219Z,4.10
2019-03-06T21:49:26.865Z,5.33
2019-03-06T21:51:55.646Z,4.80
2019-03-06T21:54:24.312Z,4.50
2019-03-06T21:56:52.543Z,4.40
2019-03-06T21:59:20.969Z,4.30
2019-03-06T22:01:49.197Z,4.20
2019-03-06T22:04:17.708Z,4.20
2019-03-06T22:06:45.978Z,4.60
2019-03-06T22:09:15.074Z,4.73
2019-03-06T22:11:43.663Z,5.13
2019-03-06T22:14:11.964Z,6.00
2019-03-06T22:16:40.192Z,5.10
2019-03-06T22:19:08.520Z,4.50
2019-03-06T22:21:36.765Z,4.27
2019-03-06T22:24:05.064Z,5.87
2019-03-06T22:26:33.692Z,5.37
2019-03-06T22:29:02.318Z,5.17
2019-03-06T22:31:32.060Z,4.27
2019-03-06T22:34:00.589Z,8.20
2019-03-06T22:36:29.213Z,8.00
2019-03-06T22:38:57.790Z,7.73
2019-03-06T22:41:26.795Z,6.90
2019-03-06T22:43:55.333Z,5.77
2019-03-06T22:46:23.946Z,5.63
2019-03-06T22:48:52.509Z,6.40
2019-03-06T22:51:21.129Z,5.80
2019-03-06T22:53:49.670Z,5.30
2019-03-06T22:56:18.319Z,5.77
2019-03-06T22:58:46.937Z,6.07
2019-03-06T23:01:17.012Z,5.83
2019-03-06T23:03:45.822Z,5.23
2019-03-06T23:06:14.374Z,5.37
2019-03-06T23:08:43.082Z,5.93
2019-03-06T23:11:11.724Z,5.40
2019-03-06T23:13:40.353Z,5.40
2019-03-06T23:16:08.898Z,5.70
2019-03-06T23:18:37.608Z,4.70
2019-03-06T23:21:06.256Z,5.33
2019-03-06T23:23:34.549Z,5.60
2019-03-06T23:26:02.769Z,6.27
2019-03-06T23:28:31.008Z,10.73
2019-03-06T23:30:59.511Z,15.03
2019-03-06T23:33:27.805Z,12.00
2019-03-06T23:35:56.142Z,9.63
2019-03-06T23:38:24.438Z,8.50
2019-03-06T23:40:52.756Z,7.60
2019-03-06T23:43:20.980Z,6.50
2019-03-06T23:45:49.237Z,6.70
2019-03-06T23:48:17.497Z,5.37
2019-03-06T23:50:45.973Z,5.80
2019-03-06T23:53:14.348Z,6.27
2019-03-06T23:55:42.601Z,9.67
2019-03-06T23:58:10.908Z,11.50
